sensor_id;sensor_type;location;lat;lon;timestamp;pressure;altitude;pressure_sealevel;temperature;humidity
7264;BME280;3673;52.480;13.348;2023-04-30T00:02:10;101573.13;;;14.99;41.72
7264;BME280;3673;52.480;13.348;2023-04-30T00:04:37;101574.03;;;14.96;41.84
7264;BME280;3673;52.480;13.348;2023-04-30T00:07:04;101567.13;;;14.74;42.27
7264;BME280;3673;52.480;13.348;2023-04-30T00:09:30;101574.03;;;14.96;41.63
7264;BME280;3673;52.480;13.348;2023-04-30T00:11:57;101566.97;;;15.03;41.14
7264;BME280;3673;52.480;13.348;2023-04-30T00:14:27;101570.47;;;15.03;40.84
7264;BME280;3673;52.480;13.348;2023-04-30T00:16:55;101570.44;;;15.09;40.82
7264;BME280;3673;52.480;13.348;2023-04-30T00:19:22;101580.31;;;14.71;41.17
7264;BME280;3673;52.480;13.348;2023-04-30T00:21:49;101575.81;;;14.88;40.98
7264;BME280;3673;52.480;13.348;2023-04-30T00:24:15;101580.25;;;14.80;41.31
7264;BME280;3673;52.480;13.348;2023-04-30T00:26:42;101582.03;;;14.81;40.96
7264;BME280;3673;52.480;13.348;2023-04-30T00:29:09;101584.66;;;14.84;41.11
7264;BME280;3673;52.480;13.348;2023-04-30T00:31:37;101590.91;;;14.53;41.61
7264;BME280;3673;52.480;13.348;2023-04-30T00:34:05;101586.53;;;14.46;41.95
7264;BME280;3673;52.480;13.348;2023-04-30T00:36:31;101593.50;;;14.63;41.72
7264;BME280;3673;52.480;13.348;2023-04-30T00:38:58;101587.34;;;14.67;41.87
7264;BME280;3673;52.480;13.348;2023-04-30T00:41:25;101593.47;;;14.74;42.10
7264;BME280;3673;52.480;13.348;2023-04-30T00:43:52;101600.47;;;14.75;42.40
7264;BME280;3673;52.480;13.348;2023-04-30T00:46:19;101610.19;;;14.55;42.57
7264;BME280;3673;52.480;13.348;2023-04-30T00:48:46;101609.28;;;14.69;42.78
7264;BME280;3673;52.480;13.348;2023-04-30T00:51:15;101606.66;;;14.65;42.90
7264;BME280;3673;52.480;13.348;2023-04-30T00:53:42;101612.78;;;14.68;43.15
7264;BME280;3673;52.480;13.348;2023-04-30T00:56:09;101625.13;;;14.59;43.08
7264;BME280;3673;52.480;13.348;2023-04-30T00:58:36;101625.19;;;14.40;44.47
7264;BME280;3673;52.480;13.348;2023-04-30T01:01:03;101625.16;;;14.50;43.72
7264;BME280;3673;52.480;13.348;2023-04-30T01:03:31;101628.66;;;14.50;44.28
7264;BME280;3673;52.480;13.348;2023-04-30T01:06:00;101633.97;;;14.00;44.73
7264;BME280;3673;52.480;13.348;2023-04-30T01:08:29;101629.59;;;14.13;44.25
7264;BME280;3673;52.480;13.348;2023-04-30T01:11:10;101641.84;;;14.24;44.13
7264;BME280;3673;52.480;13.348;2023-04-30T01:13:54;101636.59;;;14.35;43.53
7264;BME280;3673;52.480;13.348;2023-04-30T01:16:27;101640.09;;;14.23;43.99
7264;BME280;3673;52.480;13.348;2023-04-30T01:18:59;101647.97;;;14.25;44.03
7264;BME280;3673;52.480;13.348;2023-04-30T01:21:28;101650.66;;;14.34;44.17
7264;BME280;3673;52.480;13.348;2023-04-30T01:24:23;101646.25;;;14.27;44.14
7264;BME280;3673;52.480;13.348;2023-04-30T01:27:03;101655.00;;;14.15;44.51
7264;BME280;3673;52.480;13.348;2023-04-30T01:29:38;101648.88;;;14.19;44.44
7264;BME280;3673;52.480;13.348;2023-04-30T01:32:07;101647.09;;;14.21;44.66
7264;BME280;3673;52.480;13.348;2023-04-30T01:34:35;101644.50;;;14.12;44.90
7264;BME280;3673;52.480;13.348;2023-04-30T01:37:14;101656.78;;;14.00;45.30
7264;BME280;3673;52.480;13.348;2023-04-30T01:40:02;101666.44;;;14.10;45.19
7264;BME280;3673;52.480;13.348;2023-04-30T01:42:40;101655.00;;;14.30;44.38
7264;BME280;3673;52.480;13.348;2023-04-30T01:45:22;101659.41;;;14.27;44.47
7264;BME280;3673;52.480;13.348;2023-04-30T01:48:07;101653.28;;;14.10;44.89
7264;BME280;3673;52.480;13.348;2023-04-30T01:50:43;101654.13;;;13.78;44.97
7264;BME280;3673;52.480;13.348;2023-04-30T01:53:22;101671.69;;;13.99;45.32
7264;BME280;3673;52.480;13.348;2023-04-30T01:55:55;101662.91;;;13.99;45.26
7264;BME280;3673;52.480;13.348;2023-04-30T01:58:23;101676.97;;;13.84;45.07
7264;BME280;3673;52.480;13.348;2023-04-30T02:00:52;101685.69;;;13.72;45.19
7264;BME280;3673;52.480;13.348;2023-04-30T02:03:19;101682.19;;;13.69;45.52
7264;BME280;3673;52.480;13.348;2023-04-30T02:05:46;101665.47;;;13.41;46.24
7264;BME280;3673;52.480;13.348;2023-04-30T02:08:13;101680.41;;;13.40;46.56
7264;BME280;3673;52.480;13.348;2023-04-30T02:10:40;101693.56;;;13.57;46.28
7264;BME280;3673;52.480;13.348;2023-04-30T02:13:07;101694.44;;;13.58;45.82
7264;BME280;3673;52.480;13.348;2023-04-30T02:15:34;101690.97;;;13.75;45.36
7264;BME280;3673;52.480;13.348;2023-04-30T02:18:02;101693.59;;;13.78;45.58
7264;BME280;3673;52.480;13.348;2023-04-30T02:20:29;101694.44;;;13.56;45.95
7264;BME280;3673;52.480;13.348;2023-04-30T02:22:55;101697.97;;;13.66;45.27
7264;BME280;3673;52.480;13.348;2023-04-30T02:25:22;101703.25;;;13.73;45.75
7264;BME280;3673;52.480;13.348;2023-04-30T02:27:49;101709.34;;;13.57;45.81
7264;BME280;3673;52.480;13.348;2023-04-30T02:30:16;101704.97;;;13.56;45.97
7264;BME280;3673;52.480;13.348;2023-04-30T02:32:44;101704.09;;;13.54;46.09
7264;BME280;3673;52.480;13.348;2023-04-30T02:35:12;101705.84;;;13.54;46.51
7264;BME280;3673;52.480;13.348;2023-04-30T02:37:39;101704.94;;;13.44;45.80
7264;BME280;3673;52.480;13.348;2023-04-30T02:40:07;101711.00;;;13.20;46.68
7264;BME280;3673;52.480;13.348;2023-04-30T02:42:35;101710.06;;;13.09;47.22
7264;BME280;3673;52.480;13.348;2023-04-30T02:45:01;101708.13;;;12.82;47.47
7264;BME280;3673;52.480;13.348;2023-04-30T02:47:28;101711.66;;;12.83;47.83
7264;BME280;3673;52.480;13.348;2023-04-30T02:49:55;101721.88;;;12.41;48.77
7264;BME280;3673;52.480;13.348;2023-04-30T02:52:23;101720.13;;;12.43;48.80
7264;BME280;3673;52.480;13.348;2023-04-30T02:54:50;101720.91;;;12.31;49.06
7264;BME280;3673;52.480;13.348;2023-04-30T02:57:17;101718.47;;;12.52;48.75
7264;BME280;3673;52.480;13.348;2023-04-30T02:59:44;101725.31;;;12.35;49.42
7264;BME280;3673;52.480;13.348;2023-04-30T03:02:11;101723.25;;;11.98;50.31
7264;BME280;3673;52.480;13.348;2023-04-30T03:04:38;101725.19;;;12.18;49.44
7264;BME280;3673;52.480;13.348;2023-04-30T03:07:04;101727.78;;;12.14;49.99
7264;BME280;3673;52.480;13.348;2023-04-30T03:09:33;101739.16;;;12.13;49.84
7264;BME280;3673;52.480;13.348;2023-04-30T03:12:01;101736.66;;;12.31;49.21
7264;BME280;3673;52.480;13.348;2023-04-30T03:14:28;101742.66;;;12.18;49.44
7264;BME280;3673;52.480;13.348;2023-04-30T03:16:55;101748.66;;;12.02;49.99
7264;BME280;3673;52.480;13.348;2023-04-30T03:19:21;101745.06;;;11.91;50.19
7264;BME280;3673;52.480;13.348;2023-04-30T03:21:50;101748.66;;;12.00;49.83
7264;BME280;3673;52.480;13.348;2023-04-30T03:24:16;101760.19;;;12.19;49.63
7264;BME280;3673;52.480;13.348;2023-04-30T03:26:44;101749.16;;;12.65;48.91
7264;BME280;3673;52.480;13.348;2023-04-30T03:29:11;101758.00;;;12.73;48.36
7264;BME280;3673;52.480;13.348;2023-04-30T03:31:38;101758.97;;;12.87;48.02
7264;BME280;3673;52.480;13.348;2023-04-30T03:34:05;101745.44;;;12.34;48.27
7264;BME280;3673;52.480;13.348;2023-04-30T03:36:32;101751.53;;;12.32;48.53
7264;BME280;3673;52.480;13.348;2023-04-30T03:38:59;101749.47;;;11.98;49.05
7264;BME280;3673;52.480;13.348;2023-04-30T03:41:26;101752.97;;;11.95;49.39
7264;BME280;3673;52.480;13.348;2023-04-30T03:43:54;101763.97;;;11.65;50.53
7264;BME280;3673;52.480;13.348;2023-04-30T03:46:21;101760.72;;;11.84;49.75
7264;BME280;3673;52.480;13.348;2023-04-30T03:48:48;101769.31;;;11.71;50.15
7264;BME280;3673;52.480;13.348;2023-04-30T03:51:15;101770.22;;;11.73;50.29
7264;BME280;3673;52.480;13.348;2023-04-30T03:53:42;101776.53;;;11.92;50.42
7264;BME280;3673;52.480;13.348;2023-04-30T03:56:09;101774.50;;;11.67;50.46
7264;BME280;3673;52.480;13.348;2023-04-30T03:58:36;101767.25;;;11.46;51.56
7264;BME280;3673;52.480;13.348;2023-04-30T04:01:05;101780.94;;;11.22;52.03
7264;BME280;3673;52.480;13.348;2023-04-30T04:03:33;101784.63;;;11.38;51.19
7264;BME280;3673;52.480;13.348;2023-04-30T04:06:00;101794.91;;;11.24;51.37
7264;BME280;3673;52.480;13.348;2023-04-30T04:08:27;101784.75;;;11.47;50.70
7264;BME280;3673;52.480;13.348;2023-04-30T04:10:54;101796.47;;;11.78;50.66
7264;BME280;3673;52.480;13.348;2023-04-30T04:13:21;101790.63;;;12.00;49.74
7264;BME280;3673;52.480;13.348;2023-04-30T04:15:47;101794.78;;;11.81;49.70
7264;BME280;3673;52.480;13.348;2023-04-30T04:18:15;101800.34;;;11.38;50.87
7264;BME280;3673;52.480;13.348;2023-04-30T04:20:42;101800.28;;;11.35;50.98
7264;BME280;3673;52.480;13.348;2023-04-30T04:23:12;101795.06;;;11.33;50.92
7264;BME280;3673;52.480;13.348;2023-04-30T04:25:39;101799.59;;;11.48;49.78
7264;BME280;3673;52.480;13.348;2023-04-30T04:28:06;101807.47;;;11.50;50.24
7264;BME280;3673;52.480;13.348;2023-04-30T04:30:32;101806.28;;;11.94;49.55
7264;BME280;3673;52.480;13.348;2023-04-30T04:32:59;101801.94;;;11.96;49.13
7264;BME280;3673;52.480;13.348;2023-04-30T04:35:27;101817.59;;;11.92;48.72
7264;BME280;3673;52.480;13.348;2023-04-30T04:37:54;101815.22;;;12.14;48.35
7264;BME280;3673;52.480;13.348;2023-04-30T04:40:21;101818.69;;;12.12;48.83
7264;BME280;3673;52.480;13.348;2023-04-30T04:42:49;101823.19;;;12.25;48.61
7264;BME280;3673;52.480;13.348;2023-04-30T04:45:17;101819.78;;;12.32;48.15
7264;BME280;3673;52.480;13.348;2023-04-30T04:47:43;101827.19;;;11.86;49.11
7264;BME280;3673;52.480;13.348;2023-04-30T04:50:10;101830.69;;;11.88;49.19
7264;BME280;3673;52.480;13.348;2023-04-30T04:52:39;101830.59;;;11.81;49.28
7264;BME280;3673;52.480;13.348;2023-04-30T04:55:06;101838.00;;;11.48;49.77
7264;BME280;3673;52.480;13.348;2023-04-30T04:57:33;101844.09;;;11.45;50.06
7264;BME280;3673;52.480;13.348;2023-04-30T05:00:00;101839.19;;;11.08;50.78
7264;BME280;3673;52.480;13.348;2023-04-30T05:02:30;101847.69;;;11.52;49.89
7264;BME280;3673;52.480;13.348;2023-04-30T05:04:57;101851.56;;;11.79;49.50
7264;BME280;3673;52.480;13.348;2023-04-30T05:07:24;101857.31;;;12.23;48.91
7264;BME280;3673;52.480;13.348;2023-04-30T05:09:52;101864.38;;;12.30;48.24
7264;BME280;3673;52.480;13.348;2023-04-30T05:12:19;101857.28;;;12.22;48.15
7264;BME280;3673;52.480;13.348;2023-04-30T05:14:46;101866.84;;;12.15;48.21
7264;BME280;3673;52.480;13.348;2023-04-30T05:17:13;101873.59;;;11.94;48.48
7264;BME280;3673;52.480;13.348;2023-04-30T05:19:40;101868.25;;;11.86;48.85
7264;BME280;3673;52.480;13.348;2023-04-30T05:22:07;101871.16;;;12.12;48.73
7264;BME280;3673;52.480;13.348;2023-04-30T05:24:34;101873.84;;;12.16;48.34
7264;BME280;3673;52.480;13.348;2023-04-30T05:27:02;101874.16;;;12.47;47.89
7264;BME280;3673;52.480;13.348;2023-04-30T05:29:30;101882.38;;;11.99;48.47
7264;BME280;3673;52.480;13.348;2023-04-30T05:31:57;101894.78;;;12.12;49.24
7264;BME280;3673;52.480;13.348;2023-04-30T05:34:24;101889.44;;;12.04;48.85
7264;BME280;3673;52.480;13.348;2023-04-30T05:36:50;101891.28;;;12.13;48.70
7264;BME280;3673;52.480;13.348;2023-04-30T05:39:17;101895.13;;;11.70;49.24
7264;BME280;3673;52.480;13.348;2023-04-30T05:41:44;101886.88;;;11.43;49.67
7264;BME280;3673;52.480;13.348;2023-04-30T05:44:12;101896.50;;;11.45;50.02
7264;BME280;3673;52.480;13.348;2023-04-30T05:46:39;101898.31;;;11.49;50.14
7264;BME280;3673;52.480;13.348;2023-04-30T05:49:06;101902.22;;;11.78;49.99
7264;BME280;3673;52.480;13.348;2023-04-30T05:51:32;101904.50;;;12.20;49.10
7264;BME280;3673;52.480;13.348;2023-04-30T05:53:59;101912.41;;;12.23;47.96
7264;BME280;3673;52.480;13.348;2023-04-30T05:56:26;101901.13;;;12.30;48.36
7264;BME280;3673;52.480;13.348;2023-04-30T05:58:53;101910.13;;;12.58;47.82
7264;BME280;3673;52.480;13.348;2023-04-30T06:01:21;101911.03;;;12.62;47.00
7264;BME280;3673;52.480;13.348;2023-04-30T06:03:48;101906.22;;;12.17;48.22
7264;BME280;3673;52.480;13.348;2023-04-30T06:06:15;101908.00;;;11.53;49.70
7264;BME280;3673;52.480;13.348;2023-04-30T06:08:42;101912.50;;;11.63;49.82
7264;BME280;3673;52.480;13.348;2023-04-30T06:11:10;101916.00;;;11.65;49.11
7264;BME280;3673;52.480;13.348;2023-04-30T06:13:38;101922.09;;;12.27;47.96
7264;BME280;3673;52.480;13.348;2023-04-30T06:16:06;101922.44;;;12.65;47.28
7264;BME280;3673;52.480;13.348;2023-04-30T06:18:35;101920.03;;;12.88;46.66
7264;BME280;3673;52.480;13.348;2023-04-30T06:21:01;101925.66;;;12.35;47.22
7264;BME280;3673;52.480;13.348;2023-04-30T06:23:28;101938.25;;;11.92;48.04
7264;BME280;3673;52.480;13.348;2023-04-30T06:25:55;101928.53;;;12.61;46.96
7264;BME280;3673;52.480;13.348;2023-04-30T06:28:22;101928.84;;;12.93;46.29
7264;BME280;3673;52.480;13.348;2023-04-30T06:30:49;101926.28;;;13.01;45.61
7264;BME280;3673;52.480;13.348;2023-04-30T06:33:16;101929.00;;;13.11;45.64
7264;BME280;3673;52.480;13.348;2023-04-30T06:35:44;101930.91;;;13.32;45.21
7264;BME280;3673;52.480;13.348;2023-04-30T06:38:11;101937.69;;;13.04;44.77
7264;BME280;3673;52.480;13.348;2023-04-30T06:40:37;101946.13;;;12.71;45.69
7264;BME280;3673;52.480;13.348;2023-04-30T06:43:04;101932.38;;;12.97;45.40
7264;BME280;3673;52.480;13.348;2023-04-30T06:45:31;101936.19;;;13.32;44.67
7264;BME280;3673;52.480;13.348;2023-04-30T06:47:58;101935.41;;;13.44;44.91
7264;BME280;3673;52.480;13.348;2023-04-30T06:50:25;101927.59;;;13.57;44.28
7264;BME280;3673;52.480;13.348;2023-04-30T06:52:53;101929.31;;;13.51;44.21
7264;BME280;3673;52.480;13.348;2023-04-30T06:55:20;101928.44;;;13.53;43.82
7264;BME280;3673;52.480;13.348;2023-04-30T06:57:47;101937.38;;;13.81;43.11
7264;BME280;3673;52.480;13.348;2023-04-30T07:00:13;101932.94;;;13.74;43.77
7264;BME280;3673;52.480;13.348;2023-04-30T07:02:41;101929.28;;;13.48;43.72
7264;BME280;3673;52.480;13.348;2023-04-30T07:05:08;101929.13;;;13.23;44.40
7264;BME280;3673;52.480;13.348;2023-04-30T07:07:35;101932.31;;;12.89;44.78
7264;BME280;3673;52.480;13.348;2023-04-30T07:10:05;101927.84;;;12.77;45.05
7264;BME280;3673;52.480;13.348;2023-04-30T07:12:32;101929.28;;;13.46;44.24
7264;BME280;3673;52.480;13.348;2023-04-30T07:14:59;101932.31;;;12.89;44.88
7264;BME280;3673;52.480;13.348;2023-04-30T07:17:26;101927.19;;;13.04;44.60
7264;BME280;3673;52.480;13.348;2023-04-30T07:19:52;101934.22;;;12.19;46.06
7264;BME280;3673;52.480;13.348;2023-04-30T07:22:19;101928.97;;;12.19;45.95
7264;BME280;3673;52.480;13.348;2023-04-30T07:24:46;101924.53;;;13.00;44.83
7264;BME280;3673;52.480;13.348;2023-04-30T07:27:14;101929.38;;;13.66;43.56
7264;BME280;3673;52.480;13.348;2023-04-30T07:29:41;101934.47;;;13.37;42.88
7264;BME280;3673;52.480;13.348;2023-04-30T07:32:10;101931.31;;;14.03;41.96
7264;BME280;3673;52.480;13.348;2023-04-30T07:34:37;101933.94;;;14.03;43.37
7264;BME280;3673;52.480;13.348;2023-04-30T07:37:04;101926.16;;;14.30;41.33
7264;BME280;3673;52.480;13.348;2023-04-30T07:39:30;101930.09;;;13.37;42.90
7264;BME280;3673;52.480;13.348;2023-04-30T07:41:57;101933.75;;;13.64;42.86
7264;BME280;3673;52.480;13.348;2023-04-30T07:44:25;101928.38;;;13.43;42.93
7264;BME280;3673;52.480;13.348;2023-04-30T07:46:52;101933.66;;;13.49;42.51
7264;BME280;3673;52.480;13.348;2023-04-30T07:49:19;101950.03;;;13.10;42.76
7264;BME280;3673;52.480;13.348;2023-04-30T07:51:46;101942.06;;;13.04;43.14
7264;BME280;3673;52.480;13.348;2023-04-30T07:54:13;101925.94;;;13.76;42.72
7264;BME280;3673;52.480;13.348;2023-04-30T07:56:40;101946.91;;;13.65;41.57
7264;BME280;3673;52.480;13.348;2023-04-30T07:59:07;101949.84;;;14.30;40.50
7264;BME280;3673;52.480;13.348;2023-04-30T08:01:35;101940.28;;;14.48;39.78
7264;BME280;3673;52.480;13.348;2023-04-30T08:04:02;101938.56;;;14.81;39.99
7264;BME280;3673;52.480;13.348;2023-04-30T08:06:29;101942.06;;;14.88;39.28
7264;BME280;3673;52.480;13.348;2023-04-30T08:08:56;101937.69;;;15.07;39.23
7264;BME280;3673;52.480;13.348;2023-04-30T08:11:23;101939.47;;;14.97;38.41
7264;BME280;3673;52.480;13.348;2023-04-30T08:13:50;101935.84;;;14.36;39.27
7264;BME280;3673;52.480;13.348;2023-04-30T08:16:16;101947.28;;;14.49;38.63
7264;BME280;3673;52.480;13.348;2023-04-30T08:18:44;101952.56;;;14.59;37.90
7264;BME280;3673;52.480;13.348;2023-04-30T08:21:13;101946.47;;;14.80;37.81
7264;BME280;3673;52.480;13.348;2023-04-30T08:23:40;101956.13;;;14.85;37.94
7264;BME280;3673;52.480;13.348;2023-04-30T08:26:07;101950.00;;;14.86;36.86
7264;BME280;3673;52.480;13.348;2023-04-30T08:28:34;101947.38;;;14.91;36.55
7264;BME280;3673;52.480;13.348;2023-04-30T08:31:00;101962.06;;;14.15;37.97
7264;BME280;3673;52.480;13.348;2023-04-30T08:33:27;101953.34;;;14.29;37.85
7264;BME280;3673;52.480;13.348;2023-04-30T08:35:55;101955.22;;;14.65;36.51
7264;BME280;3673;52.480;13.348;2023-04-30T08:38:23;101964.00;;;14.54;35.65
7264;BME280;3673;52.480;13.348;2023-04-30T08:40:56;101953.44;;;14.52;36.19
7264;BME280;3673;52.480;13.348;2023-04-30T08:43:27;101954.38;;;14.80;34.57
7264;BME280;3673;52.480;13.348;2023-04-30T08:45:54;101953.44;;;14.55;35.31
7264;BME280;3673;52.480;13.348;2023-04-30T08:48:23;101952.56;;;14.53;35.86
7264;BME280;3673;52.480;13.348;2023-04-30T08:50:50;101956.97;;;14.56;33.80
7264;BME280;3673;52.480;13.348;2023-04-30T08:53:19;101955.06;;;14.18;33.10
7264;BME280;3673;52.480;13.348;2023-04-30T08:55:47;101951.72;;;14.63;31.54
7264;BME280;3673;52.480;13.348;2023-04-30T08:58:13;101952.47;;;14.27;31.61
7264;BME280;3673;52.480;13.348;2023-04-30T09:00:44;101950.84;;;14.91;31.89
7264;BME280;3673;52.480;13.348;2023-04-30T09:03:10;101956.06;;;15.82;30.34
7264;BME280;3673;52.480;13.348;2023-04-30T09:05:38;101950.88;;;15.51;30.28
7264;BME280;3673;52.480;13.348;2023-04-30T09:08:07;101960.53;;;15.20;29.55
7264;BME280;3673;52.480;13.348;2023-04-30T09:10:35;101958.78;;;15.02;30.96
7264;BME280;3673;52.480;13.348;2023-04-30T09:13:05;101960.53;;;15.17;30.87
7264;BME280;3673;52.480;13.348;2023-04-30T09:15:33;101964.91;;;15.12;30.56
7264;BME280;3673;52.480;13.348;2023-04-30T09:18:12;101957.03;;;15.19;31.16
7264;BME280;3673;52.480;13.348;2023-04-30T09:20:55;101957.75;;;16.06;31.44
7264;BME280;3673;52.480;13.348;2023-04-30T09:23:22;101958.44;;;16.47;29.22
7264;BME280;3673;52.480;13.348;2023-04-30T09:25:50;101952.13;;;16.77;28.54
7264;BME280;3673;52.480;13.348;2023-04-30T09:28:18;101966.38;;;16.41;28.91
7264;BME280;3673;52.480;13.348;2023-04-30T09:30:48;101957.03;;;15.37;30.03
7264;BME280;3673;52.480;13.348;2023-04-30T09:33:15;101958.78;;;15.64;30.08
7264;BME280;3673;52.480;13.348;2023-04-30T09:35:42;101962.28;;;15.39;28.46
7264;BME280;3673;52.480;13.348;2023-04-30T09:38:25;101969.31;;;15.58;28.70
7264;BME280;3673;52.480;13.348;2023-04-30T09:40:53;101971.28;;;17.02;29.93
7264;BME280;3673;52.480;13.348;2023-04-30T09:43:20;101964.38;;;17.83;29.41
7264;BME280;3673;52.480;13.348;2023-04-30T09:45:48;101971.28;;;17.02;26.97
7264;BME280;3673;52.480;13.348;2023-04-30T09:48:19;101965.84;;;17.23;27.23
7264;BME280;3673;52.480;13.348;2023-04-30T09:50:47;101960.47;;;17.32;26.96
7264;BME280;3673;52.480;13.348;2023-04-30T09:53:17;101961.28;;;17.39;24.22
7264;BME280;3673;52.480;13.348;2023-04-30T09:55:45;101951.41;;;17.59;23.92
7264;BME280;3673;52.480;13.348;2023-04-30T09:58:16;101956.66;;;17.64;24.17
7264;BME280;3673;52.480;13.348;2023-04-30T10:00:45;101956.59;;;17.71;24.34
7264;BME280;3673;52.480;13.348;2023-04-30T10:03:14;101955.50;;;17.90;23.66
7264;BME280;3673;52.480;13.348;2023-04-30T10:05:43;101953.13;;;18.35;22.78
7264;BME280;3673;52.480;13.348;2023-04-30T10:08:17;101944.56;;;18.15;22.72
7264;BME280;3673;52.480;13.348;2023-04-30T10:10:46;101950.56;;;17.54;24.16
7264;BME280;3673;52.480;13.348;2023-04-30T10:13:19;101948.47;;;17.86;24.45
7264;BME280;3673;52.480;13.348;2023-04-30T10:15:50;101941.47;;;18.49;23.84
7264;BME280;3673;52.480;13.348;2023-04-30T10:18:27;101942.69;;;18.87;24.06
7264;BME280;3673;52.480;13.348;2023-04-30T10:20:56;101949.56;;;19.96;24.14
7264;BME280;3673;52.480;13.348;2023-04-30T10:23:24;101944.19;;;19.01;24.09
7264;BME280;3673;52.480;13.348;2023-04-30T10:25:51;101939.72;;;18.47;23.79
7264;BME280;3673;52.480;13.348;2023-04-30T10:28:20;101947.50;;;19.17;23.34
7264;BME280;3673;52.480;13.348;2023-04-30T10:30:50;101934.97;;;18.72;24.18
7264;BME280;3673;52.480;13.348;2023-04-30T10:33:22;101943.47;;;19.45;24.00
7264;BME280;3673;52.480;13.348;2023-04-30T10:35:58;101931.59;;;19.16;24.52
7264;BME280;3673;52.480;13.348;2023-04-30T10:38:27;101933.13;;;18.77;24.17
7264;BME280;3673;52.480;13.348;2023-04-30T10:40:55;101931.25;;;18.83;24.32
7264;BME280;3673;52.480;13.348;2023-04-30T10:43:24;101922.75;;;19.15;23.57
7264;BME280;3673;52.480;13.348;2023-04-30T10:45:52;101920.50;;;19.89;23.08
7264;BME280;3673;52.480;13.348;2023-04-30T10:48:22;101923.22;;;19.86;22.62
7264;BME280;3673;52.480;13.348;2023-04-30T10:50:51;101917.84;;;19.44;23.03
7264;BME280;3673;52.480;13.348;2023-04-30T10:53:20;101919.59;;;19.91;23.58
7264;BME280;3673;52.480;13.348;2023-04-30T10:55:53;101909.50;;;20.07;25.04
7264;BME280;3673;52.480;13.348;2023-04-30T10:58:26;101920.72;;;20.21;22.89
7264;BME280;3673;52.480;13.348;2023-04-30T11:01:14;101919.44;;;20.39;22.92
7264;BME280;3673;52.480;13.348;2023-04-30T11:04:04;101920.03;;;19.20;24.03
7264;BME280;3673;52.480;13.348;2023-04-30T11:06:49;101919.84;;;19.78;23.94
7264;BME280;3673;52.480;13.348;2023-04-30T11:09:37;101905.66;;;20.95;23.79
7264;BME280;3673;52.480;13.348;2023-04-30T11:12:13;101899.97;;;21.44;22.78
7264;BME280;3673;52.480;13.348;2023-04-30T11:14:44;101892.88;;;22.62;22.79
7264;BME280;3673;52.480;13.348;2023-04-30T11:17:23;101894.56;;;22.66;21.85
7264;BME280;3673;52.480;13.348;2023-04-30T11:19:52;101901.91;;;21.04;22.61
7264;BME280;3673;52.480;13.348;2023-04-30T11:22:22;101894.84;;;21.03;22.50
7264;BME280;3673;52.480;13.348;2023-04-30T11:25:01;101898.00;;;20.83;23.30
7264;BME280;3673;52.480;13.348;2023-04-30T11:27:30;101900.13;;;19.89;24.17
7264;BME280;3673;52.480;13.348;2023-04-30T11:30:00;101891.16;;;20.36;23.54
7264;BME280;3673;52.480;13.348;2023-04-30T11:32:32;101891.16;;;21.73;23.43
7264;BME280;3673;52.480;13.348;2023-04-30T11:35:00;101876.88;;;22.90;21.21
7264;BME280;3673;52.480;13.348;2023-04-30T11:37:44;101885.16;;;21.65;22.08
7264;BME280;3673;52.480;13.348;2023-04-30T11:40:14;101886.03;;;22.27;22.38
7264;BME280;3673;52.480;13.348;2023-04-30T11:42:42;101893.81;;;23.40;20.86
7264;BME280;3673;52.480;13.348;2023-04-30T11:45:16;101882.00;;;23.95;20.42
7264;BME280;3673;52.480;13.348;2023-04-30T11:48:01;101887.63;;;22.88;20.18
7264;BME280;3673;52.480;13.348;2023-04-30T11:50:32;101876.69;;;21.82;21.26
7264;BME280;3673;52.480;13.348;2023-04-30T11:52:59;101881.50;;;22.01;21.42
7264;BME280;3673;52.480;13.348;2023-04-30T11:55:28;101887.31;;;21.52;22.72
7264;BME280;3673;52.480;13.348;2023-04-30T11:57:56;101877.69;;;22.92;21.76
7264;BME280;3673;52.480;13.348;2023-04-30T12:00:28;101866.38;;;23.10;20.92
7264;BME280;3673;52.480;13.348;2023-04-30T12:02:56;101866.66;;;24.00;20.89
7264;BME280;3673;52.480;13.348;2023-04-30T12:05:26;101876.56;;;24.21;20.56
7264;BME280;3673;52.480;13.348;2023-04-30T12:07:56;101866.47;;;24.28;20.57
7264;BME280;3673;52.480;13.348;2023-04-30T12:10:23;101878.06;;;24.05;19.98
7264;BME280;3673;52.480;13.348;2023-04-30T12:12:51;101866.81;;;24.19;19.69
7264;BME280;3673;52.480;13.348;2023-04-30T12:15:22;101869.91;;;25.17;19.44
7264;BME280;3673;52.480;13.348;2023-04-30T12:17:54;101862.06;;;24.70;20.27
7264;BME280;3673;52.480;13.348;2023-04-30T12:20:24;101866.41;;;24.73;19.39
7264;BME280;3673;52.480;13.348;2023-04-30T12:22:52;101864.22;;;25.44;19.36
7264;BME280;3673;52.480;13.348;2023-04-30T12:25:20;101860.56;;;25.45;18.90
7264;BME280;3673;52.480;13.348;2023-04-30T12:27:49;101873.03;;;24.64;18.80
7264;BME280;3673;52.480;13.348;2023-04-30T12:30:20;101878.88;;;23.09;20.83
7264;BME280;3673;52.480;13.348;2023-04-30T12:32:50;101867.25;;;23.35;21.40
7264;BME280;3673;52.480;13.348;2023-04-30T12:35:21;101859.50;;;24.67;20.44
7264;BME280;3673;52.480;13.348;2023-04-30T12:37:51;101854.03;;;24.92;20.31
7264;BME280;3673;52.480;13.348;2023-04-30T12:40:20;101853.34;;;24.87;19.64
7264;BME280;3673;52.480;13.348;2023-04-30T12:43:13;101852.22;;;24.27;19.82
7264;BME280;3673;52.480;13.348;2023-04-30T12:45:46;101860.72;;;23.69;19.97
7264;BME280;3673;52.480;13.348;2023-04-30T12:48:17;101839.31;;;24.38;19.86
7264;BME280;3673;52.480;13.348;2023-04-30T12:50:52;101839.59;;;24.74;19.63
7264;BME280;3673;52.480;13.348;2023-04-30T12:53:20;101851.66;;;23.96;19.06
7264;BME280;3673;52.480;13.348;2023-04-30T12:56:06;101837.69;;;24.11;19.84
7264;BME280;3673;52.480;13.348;2023-04-30T12:58:33;101829.06;;;25.32;18.11
7264;BME280;3673;52.480;13.348;2023-04-30T13:01:00;101832.66;;;25.51;17.10
7264;BME280;3673;52.480;13.348;2023-04-30T13:03:27;101835.38;;;25.70;17.32
7264;BME280;3673;52.480;13.348;2023-04-30T13:05:55;101822.78;;;25.72;16.86
7264;BME280;3673;52.480;13.348;2023-04-30T13:08:23;101826.91;;;25.20;17.72
7264;BME280;3673;52.480;13.348;2023-04-30T13:10:49;101831.47;;;24.76;18.00